Time;durP1;ratioP1;P1;durP2;ratioP2;P2;SDS_P1;SDS_P2;PMS_P1;PMS_P2;Temp;Humidity;BMP_temperature;BMP_pressure;BME280_temperature;BME280_humidity;BME280_pressure;Samples;Min_cycle;Max_cycle;Signal;HPM_P1;HPM_P2
2021/04/06 00:00:15;;;;;;;9.95;5.47;;;;;;;7.81;62.01;96545.13;5057438;28;20031;-86
2021/04/06 00:02:44;;;;;;;7.78;4.57;;;;;;;7.73;62.09;96522.63;5058041;28;20457;-86
2021/04/06 00:05:11;;;;;;;14.02;6.53;;;;;;;7.86;61.80;96515.53;5059045;28;20027;-86
2021/04/06 00:07:38;;;;;;;8.75;5.28;;;;;;;7.82;62.29;96532.66;5058276;28;20492;-85
2021/04/06 00:10:17;;;;;;;8.23;4.85;;;;;;;7.81;62.79;96531.81;5058390;28;20027;-86
2021/04/06 00:12:45;;;;;;;8.93;4.97;;;;;;;7.77;63.07;96518.81;5057951;28;20570;-86
2021/04/06 00:15:11;;;;;;;7.50;5.10;;;;;;;7.81;62.33;96515.84;5058712;28;20036;-86
2021/04/06 00:17:41;;;;;;;8.77;5.63;;;;;;;7.83;62.11;96513.94;5053758;28;20028;-86
2021/04/06 00:20:07;;;;;;;6.82;3.85;;;;;;;7.94;61.51;96516.72;5058927;28;20032;-87
2021/04/06 00:22:34;;;;;;;7.75;4.53;;;;;;;8.15;60.87;96509.09;5047962;28;20024;-85
2021/04/06 00:25:00;;;;;;;12.38;5.85;;;;;;;8.13;61.11;96505.66;5058624;28;20044;-86
2021/04/06 00:27:37;;;;;;;6.43;4.60;;;;;;;8.03;60.56;96483.28;5058377;28;20035;-86
2021/04/06 00:30:11;;;;;;;10.13;4.25;;;;;;;8.08;60.66;96495.34;5088862;28;20028;-86
2021/04/06 00:32:37;;;;;;;6.55;4.20;;;;;;;8.06;60.27;96489.25;5055661;28;20036;-86
2021/04/06 00:35:05;;;;;;;6.30;4.28;;;;;;;7.98;60.91;96480.94;5058149;28;20032;-86
2021/04/06 00:37:31;;;;;;;6.28;4.15;;;;;;;8.02;60.78;96460.28;5058109;28;20034;-86
2021/04/06 00:40:06;;;;;;;7.75;4.40;;;;;;;8.18;59.61;96472.41;5058537;28;20422;-86
2021/04/06 00:42:32;;;;;;;6.75;3.90;;;;;;;8.43;58.27;96460.09;5058194;28;20093;-86
2021/04/06 00:45:03;;;;;;;6.72;4.80;;;;;;;8.50;58.10;96469.34;5075025;28;20027;-86
2021/04/06 00:47:30;;;;;;;5.88;3.08;;;;;;;8.77;56.13;96453.19;5058335;28;20023;-87
2021/04/06 00:49:58;;;;;;;5.68;3.83;;;;;;;8.90;55.78;96457.50;5058037;28;20039;-86
2021/04/06 00:52:25;;;;;;;6.90;4.50;;;;;;;8.77;57.25;96439.88;5091489;28;20070;-86
2021/04/06 00:55:01;;;;;;;10.88;4.32;;;;;;;8.71;57.20;96457.13;5091548;28;20079;-86
2021/04/06 00:57:28;;;;;;;6.35;4.18;;;;;;;8.59;57.42;96434.88;5055240;28;20093;-86
2021/04/06 01:00:15;;;;;;;6.35;3.63;;;;;;;8.53;57.72;96450.47;5051965;28;20055;-87
2021/04/06 01:03:06;;;;;;;6.07;4.10;;;;;;;8.55;57.82;96448.56;5074678;28;20033;-86
2021/04/06 01:05:34;;;;;;;5.65;3.95;;;;;;;8.43;57.96;96439.59;5065327;28;20017;-89
2021/04/06 01:08:03;;;;;;;4.53;3.28;;;;;;;8.35;57.97;96430.47;5075902;28;20159;-86
2021/04/06 01:10:31;;;;;;;5.30;3.45;;;;;;;8.30;58.76;96441.47;5058143;28;20491;-86
2021/04/06 01:12:57;;;;;;;6.72;3.75;;;;;;;8.16;59.10;96434.38;5074694;28;20455;-86
2021/04/06 01:15:25;;;;;;;8.40;3.47;;;;;;;8.10;59.21;96436.63;5057806;28;20411;-86
2021/04/06 01:17:51;;;;;;;5.53;3.80;;;;;;;7.98;59.74;96435.69;5090415;28;20032;-86
2021/04/06 01:20:19;;;;;;;3.67;2.67;;;;;;;7.89;59.92;96431.00;5057902;28;20036;-86
2021/04/06 01:22:49;;;;;;;5.82;3.90;;;;;;;7.83;60.21;96433.22;5052994;28;20118;-86
2021/04/06 01:25:24;;;;;;;7.05;4.20;;;;;;;7.84;59.98;96430.47;5073825;28;20496;-85
2021/04/06 01:27:56;;;;;;;7.85;4.18;;;;;;;7.83;60.23;96418.09;5074912;28;20039;-85
2021/04/06 01:30:22;;;;;;;6.43;4.57;;;;;;;7.91;60.13;96430.88;5042685;28;20039;-82
2021/04/06 01:32:51;;;;;;;4.82;3.38;;;;;;;7.92;59.55;96417.47;5056124;28;20031;-81
2021/04/06 01:35:17;;;;;;;6.07;4.00;;;;;;;7.90;59.57;96419.41;5064457;28;20129;-81
2021/04/06 01:37:43;;;;;;;8.35;4.70;;;;;;;7.82;60.25;96416.41;5052225;28;20115;-81
2021/04/06 01:40:10;;;;;;;5.38;3.30;;;;;;;7.83;60.42;96426.09;5050676;28;20170;-81
2021/04/06 01:42:37;;;;;;;5.28;2.90;;;;;;;7.75;60.24;96414.28;5054939;28;20050;-81
2021/04/06 01:45:07;;;;;;;8.00;4.07;;;;;;;7.64;60.97;96401.69;5050266;28;20494;-83
2021/04/06 01:47:32;;;;;;;6.95;4.18;;;;;;;7.66;61.17;96410.41;5053399;28;20032;-82
2021/04/06 01:49:58;;;;;;;6.78;4.28;;;;;;;7.54;61.55;96403.28;5050656;28;20140;-82
2021/04/06 01:52:24;;;;;;;6.20;4.10;;;;;;;7.53;61.74;96406.91;5056035;28;20207;-82
2021/04/06 01:54:52;;;;;;;8.65;4.93;;;;;;;7.54;62.63;96401.47;5055936;28;20032;-82
2021/04/06 01:57:24;;;;;;;6.45;4.13;;;;;;;7.60;61.92;96400.19;5089647;28;20448;-83
2021/04/06 01:59:55;;;;;;;8.10;4.72;;;;;;;7.53;61.99;96394.47;5056423;28;20110;-83
2021/04/06 02:02:25;;;;;;;6.47;4.38;;;;;;;7.50;62.38;96388.50;5073996;28;20024;-82
2021/04/06 02:04:58;;;;;;;8.82;4.18;;;;;;;7.48;62.49;96395.72;5055184;28;20039;-82
2021/04/06 02:07:27;;;;;;;5.70;4.32;;;;;;;7.38;64.07;96394.66;5060518;28;20054;-82
2021/04/06 02:09:53;;;;;;;6.75;4.43;;;;;;;7.38;62.92;96389.34;5072655;28;20467;-83
2021/04/06 02:12:22;;;;;;;5.60;3.53;;;;;;;7.35;62.96;96386.88;5051474;28;20085;-82
2021/04/06 02:14:50;;;;;;;6.45;4.15;;;;;;;7.35;63.06;96373.59;5056222;28;20087;-82
2021/04/06 02:17:16;;;;;;;7.10;4.13;;;;;;;7.31;63.26;96380.91;5072569;28;20410;-83
2021/04/06 02:19:43;;;;;;;7.32;4.20;;;;;;;7.30;63.45;96376.53;5074972;28;20111;-82
2021/04/06 02:22:17;;;;;;;8.90;4.40;;;;;;;7.26;63.95;96368.91;5072355;28;20119;-80
2021/04/06 02:24:46;;;;;;;6.68;4.22;;;;;;;7.30;63.70;96375.69;5049715;28;20024;-82
2021/04/06 02:27:24;;;;;;;8.15;4.65;;;;;;;7.34;63.95;96377.19;5056036;28;20074;-82
2021/04/06 02:29:55;;;;;;;6.93;4.60;;;;;;;7.29;64.45;96363.38;5068887;28;20032;-82
2021/04/06 02:32:32;;;;;;;6.55;2.83;;;;;;;7.39;63.04;96370.59;5088133;28;20035;-81
2021/04/06 02:34:59;;;;;;;7.78;4.10;;;;;;;7.37;63.55;96371.66;5045885;28;20028;-82
2021/04/06 02:37:33;;;;;;;8.15;3.10;;;;;;;7.27;63.73;96365.25;5058704;28;20121;-82
2021/04/06 02:40:10;;;;;;;6.97;4.32;;;;;;;7.28;64.18;96351.00;5059452;28;20055;-82
2021/04/06 02:42:37;;;;;;;8.35;4.97;;;;;;;7.26;63.98;96363.56;5059550;28;20020;-82
2021/04/06 02:45:15;;;;;;;6.03;3.03;;;;;;;7.28;64.27;96353.69;5087678;28;20054;-82
2021/04/06 02:47:54;;;;;;;6.35;4.50;;;;;;;7.22;65.01;96367.38;5072235;28;20028;-82
2021/04/06 02:50:21;;;;;;;5.72;3.63;;;;;;;7.25;64.61;96369.84;5052300;28;20514;-82
2021/04/06 02:52:47;;;;;;;5.97;4.05;;;;;;;7.31;63.87;96361.44;5055266;28;20028;-82
2021/04/06 02:55:14;;;;;;;9.30;4.35;;;;;;;7.28;64.47;96356.34;5051849;28;20496;-81
2021/04/06 02:57:48;;;;;;;7.00;3.90;;;;;;;7.31;63.75;96361.44;5056275;28;20538;-82
2021/04/06 03:00:34;;;;;;;7.20;4.28;;;;;;;7.40;63.81;96368.78;5056194;28;20566;-82
2021/04/06 03:03:02;;;;;;;6.28;3.55;;;;;;;7.39;63.24;96372.41;5053674;28;20486;-81
2021/04/06 03:05:33;;;;;;;5.63;3.97;;;;;;;7.42;63.34;96353.56;5059358;28;20016;-82
2021/04/06 03:08:00;;;;;;;7.93;4.57;;;;;;;7.47;63.39;96356.78;5055058;28;20058;-81
2021/04/06 03:10:27;;;;;;;4.60;3.53;;;;;;;7.40;63.59;96340.41;5075394;28;20510;-81
2021/04/06 03:12:53;;;;;;;6.22;4.40;;;;;;;7.43;63.54;96360.59;5075866;28;20015;-82
2021/04/06 03:15:25;;;;;;;6.47;4.03;;;;;;;7.39;63.95;96351.13;5058766;28;20035;-82
2021/04/06 03:17:54;;;;;;;5.90;3.50;;;;;;;7.31;64.05;96340.16;5059011;28;20098;-81
2021/04/06 03:20:21;;;;;;;5.60;3.08;;;;;;;7.36;63.21;96344.22;5058750;28;20036;-81
2021/04/06 03:22:48;;;;;;;2.90;2.13;;;;;;;7.37;63.31;96342.41;5092266;28;20107;-82
2021/04/06 03:25:14;;;;;;;6.05;3.40;;;;;;;7.46;63.04;96352.41;5058409;28;20031;-83
2021/04/06 03:27:47;;;;;;;4.00;2.85;;;;;;;7.42;63.57;96350.91;5091987;28;20032;-84
2021/04/06 03:30:14;;;;;;;4.18;2.78;;;;;;;7.47;62.91;96331.03;5052213;28;20048;-82
2021/04/06 03:32:41;;;;;;;8.13;4.75;;;;;;;7.44;63.36;96335.72;5054835;28;20102;-81
2021/04/06 03:35:07;;;;;;;4.97;3.65;;;;;;;7.44;63.28;96333.06;5074838;28;20458;-82
2021/04/06 03:37:35;;;;;;;7.15;4.90;;;;;;;7.52;63.31;96344.00;5091662;28;20035;-82
2021/04/06 03:40:01;;;;;;;4.55;2.70;;;;;;;7.52;63.19;96328.91;5050173;28;20473;-82
2021/04/06 03:42:28;;;;;;;7.80;3.42;;;;;;;7.64;62.48;96338.69;5069617;28;20023;-82
2021/04/06 03:45:07;;;;;;;5.93;3.88;;;;;;;7.75;61.83;96342.41;5047869;28;20088;-82
2021/04/06 03:47:58;;;;;;;7.05;3.67;;;;;;;7.99;60.81;96349.53;5057088;28;20055;-82
2021/04/06 03:50:40;;;;;;;7.72;4.45;;;;;;;8.02;60.66;96351.97;5058089;28;20024;-82
2021/04/06 03:53:10;;;;;;;8.67;3.87;;;;;;;7.95;61.10;96345.38;5051244;28;20036;-82
2021/04/06 03:55:38;;;;;;;5.93;3.13;;;;;;;7.95;60.89;96352.50;5057719;28;20047;-81
2021/04/06 03:58:24;;;;;;;7.43;4.07;;;;;;;7.91;60.54;96338.56;5057827;28;20059;-81
2021/04/06 04:00:50;;;;;;;7.63;4.55;;;;;;;7.98;60.38;96346.97;5059817;28;20024;-81
2021/04/06 04:03:16;;;;;;;12.77;4.40;;;;;;;7.88;61.34;96340.56;5056498;28;20032;-81
2021/04/06 04:05:41;;;;;;;8.07;4.78;;;;;;;7.83;61.92;96342.72;5056022;28;20028;-81
2021/04/06 04:08:07;;;;;;;7.10;3.47;;;;;;;7.75;61.42;96332.63;5057481;28;20111;-81
2021/04/06 04:10:33;;;;;;;7.68;4.30;;;;;;;7.79;61.17;96342.09;5057190;28;20503;-81
2021/04/06 04:12:58;;;;;;;9.52;4.93;;;;;;;7.75;61.75;96327.31;5054074;28;20114;-81
2021/04/06 04:15:24;;;;;;;9.23;5.18;;;;;;;7.81;61.49;96334.00;5057820;28;20036;-82
2021/04/06 04:17:51;;;;;;;9.10;6.28;;;;;;;7.86;61.49;96348.69;5090454;28;20497;-81
2021/04/06 04:20:21;;;;;;;7.88;4.50;;;;;;;7.90;61.35;96350.19;5057631;28;20070;-81
2021/04/06 04:22:48;;;;;;;9.55;4.97;;;;;;;7.91;61.17;96330.56;5065500;28;20036;-81
2021/04/06 04:25:14;;;;;;;5.63;3.38;;;;;;;7.97;60.62;96346.09;5057514;28;20020;-81
2021/04/06 04:27:41;;;;;;;71.03;31.25;;;;;;;8.02;60.10;96333.34;5052409;28;20044;-81
2021/04/06 04:30:07;;;;;;;20.15;10.15;;;;;;;8.26;59.27;96345.84;5057293;28;20024;-81
2021/04/06 04:32:32;;;;;;;7.15;4.53;;;;;;;8.23;58.82;96322.09;5057021;28;20030;-81
2021/04/06 04:34:58;;;;;;;10.63;5.50;;;;;;;8.42;58.69;96351.81;5057007;28;20032;-81
2021/04/06 04:37:24;;;;;;;11.32;5.50;;;;;;;8.50;57.93;96346.75;5068346;28;20032;-81
2021/04/06 04:39:49;;;;;;;23.00;12.52;;;;;;;8.60;57.65;96342.47;5073635;28;20032;-80
2021/04/06 04:42:16;;;;;;;43.45;19.17;;;;;;;8.71;57.51;96350.50;5073608;28;20035;-80
2021/04/06 04:44:41;;;;;;;27.90;13.80;;;;;;;8.76;57.67;96352.84;5072778;28;20085;-80
2021/04/06 04:47:07;;;;;;;17.60;8.73;;;;;;;8.81;58.61;96348.88;5056585;28;20028;-80
2021/04/06 04:49:32;;;;;;;9.95;5.47;;;;;;;8.73;59.66;96345.09;5056866;28;20481;-81
2021/04/06 04:51:58;;;;;;;12.82;5.70;;;;;;;8.83;59.32;96357.59;5052908;28;20485;-79
2021/04/06 04:54:24;;;;;;;11.93;6.35;;;;;;;8.90;59.29;96344.66;5056001;28;20032;-78
2021/04/06 04:56:49;;;;;;;7.45;5.30;;;;;;;8.76;60.20;96350.19;5084002;28;20467;-78
2021/04/06 04:59:15;;;;;;;13.70;5.47;;;;;;;9.12;59.19;96348.28;5077347;28;20718;-79
2021/04/06 05:01:40;;;;;;;11.88;5.38;;;;;;;9.31;58.47;96346.88;5060204;28;20107;-80
2021/04/06 05:04:06;;;;;;;15.02;7.05;;;;;;;9.42;58.26;96333.56;5048056;28;20025;-75
2021/04/06 05:06:32;;;;;;;15.25;6.70;;;;;;;9.52;57.77;96335.41;5051663;28;20392;-79
2021/04/06 05:08:57;;;;;;;19.25;6.78;;;;;;;9.51;58.62;96330.19;5045603;28;20028;-76
2021/04/06 05:11:23;;;;;;;10.95;6.50;;;;;;;9.34;59.43;96335.97;5045866;28;20027;-76
2021/04/06 05:13:50;;;;;;;16.48;8.27;;;;;;;9.47;58.48;96331.41;5037080;28;20028;-76
2021/04/06 05:16:16;;;;;;;15.15;7.65;;;;;;;9.96;56.89;96323.94;5064193;28;20028;-77
2021/04/06 05:18:42;;;;;;;14.75;8.80;;;;;;;10.10;57.33;96334.38;5046001;28;20097;-78
2021/04/06 05:21:07;;;;;;;30.33;10.45;;;;;;;10.59;55.26;96328.63;5044233;28;20100;-79
2021/04/06 05:23:33;;;;;;;22.02;9.75;;;;;;;10.76;54.44;96328.13;5086271;28;20035;-79
2021/04/06 05:25:58;;;;;;;22.83;10.20;;;;;;;11.38;53.34;96335.41;5065249;28;20479;-78
2021/04/06 05:28:24;;;;;;;25.63;10.10;;;;;;;11.93;51.68;96336.91;5053730;28;20450;-81
2021/04/06 05:30:50;;;;;;;17.52;9.93;;;;;;;12.92;48.94;96328.94;5046413;28;20032;-81
2021/04/06 05:33:17;;;;;;;16.35;8.95;;;;;;;14.51;44.38;96333.53;5076007;28;20031;-81
2021/04/06 05:35:42;;;;;;;24.45;10.77;;;;;;;15.83;41.80;96346.34;5047014;28;20407;-81
2021/04/06 05:38:08;;;;;;;22.60;9.55;;;;;;;17.01;38.49;96334.69;5060860;28;20050;-82
2021/04/06 05:40:33;;;;;;;23.10;9.50;;;;;;;18.35;35.99;96329.75;5081283;28;20067;-84
2021/04/06 05:43:02;;;;;;;16.92;8.65;;;;;;;19.38;34.09;96323.19;5059615;28;20040;-82
2021/04/06 05:45:27;;;;;;;16.58;8.75;;;;;;;19.47;34.07;96333.00;5047975;28;20016;-83
2021/04/06 05:47:55;;;;;;;13.35;7.55;;;;;;;20.53;31.81;96317.53;5041245;28;20024;-83
2021/04/06 05:50:21;;;;;;;14.80;7.43;;;;;;;20.94;31.38;96331.50;5042686;28;20024;-83
2021/04/06 05:52:47;;;;;;;13.27;7.10;;;;;;;21.58;30.00;96309.88;5042513;28;20027;-83
2021/04/06 05:55:13;;;;;;;12.60;7.00;;;;;;;21.11;30.67;96314.97;5044216;28;20032;-83
2021/04/06 05:57:39;;;;;;;16.85;6.80;;;;;;;21.46;30.17;96319.59;5075230;28;20098;-82
2021/04/06 06:00:06;;;;;;;10.15;6.60;;;;;;;21.96;29.22;96307.78;5041964;28;20029;-83
2021/04/06 06:02:32;;;;;;;10.75;6.70;;;;;;;22.32;28.52;96307.66;5044673;28;20031;-80
2021/04/06 06:04:57;;;;;;;10.55;6.38;;;;;;;22.41;29.28;96311.91;5077126;28;20036;-82
2021/04/06 06:07:24;;;;;;;13.48;6.57;;;;;;;23.15;27.76;96315.72;5059506;28;20133;-81
2021/04/06 06:09:49;;;;;;;9.20;5.75;;;;;;;23.04;27.36;96289.03;5047792;28;20036;-81
2021/04/06 06:12:17;;;;;;;11.18;6.60;;;;;;;23.60;26.87;96285.03;5045174;28;20098;-81
2021/04/06 06:14:46;;;;;;;11.27;7.20;;;;;;;23.05;27.31;96280.63;5044563;28;20032;-82
2021/04/06 06:17:21;;;;;;;11.15;6.15;;;;;;;23.43;27.06;96293.81;5051174;28;20123;-82
2021/04/06 06:19:49;;;;;;;12.00;8.07;;;;;;;22.60;27.99;96273.88;5048237;28;20107;-84
2021/04/06 06:22:16;;;;;;;12.20;6.43;;;;;;;22.77;27.51;96279.03;5047282;28;20056;-85
2021/04/06 06:24:45;;;;;;;14.00;6.47;;;;;;;23.59;27.68;96280.66;5068617;28;20468;-84
2021/04/06 06:27:37;;;;;;;10.75;6.50;;;;;;;23.86;26.42;96284.25;5043728;28;20079;-85
2021/04/06 06:30:23;;;;;;;32.22;7.22;;;;;;;24.40;26.27;96264.09;5060577;28;20094;-83
2021/04/06 06:33:27;;;;;;;27.10;8.00;;;;;;;25.53;25.14;96267.16;5069994;28;20418;-82
2021/04/06 06:35:54;;;;;;;24.42;11.40;;;;;;;26.36;23.77;96248.63;5061022;28;20057;-83
2021/04/06 06:38:29;;;;;;;23.85;10.27;;;;;;;25.81;24.43;96255.78;5043861;28;20553;-81
2021/04/06 06:41:15;;;;;;;10.77;7.18;;;;;;;24.78;25.59;96257.72;5063758;28;20035;-81
2021/04/06 06:43:42;;;;;;;14.60;8.48;;;;;;;25.31;25.28;96261.13;5045502;28;20040;-83
2021/04/06 06:46:23;;;;;;;18.98;8.60;;;;;;;24.94;25.75;96267.38;5053837;28;20024;-82
2021/04/06 06:48:59;;;;;;;14.30;8.45;;;;;;;24.77;26.43;96280.66;5072790;28;20054;-81
2021/04/06 06:51:31;;;;;;;14.93;7.22;;;;;;;25.00;26.37;96276.63;5040342;28;20040;-83
2021/04/06 06:53:57;;;;;;;28.83;7.80;;;;;;;26.27;25.09;96278.22;5064606;28;20055;-82
2021/04/06 06:56:33;;;;;;;14.40;7.20;;;;;;;26.67;24.85;96264.16;5042528;28;20032;-82
2021/04/06 06:58:59;;;;;;;19.10;8.00;;;;;;;26.85;24.10;96259.56;5064341;28;20554;-82
2021/04/06 07:01:27;;;;;;;17.90;10.70;;;;;;;28.27;22.65;96264.38;5072077;28;20079;-83
2021/04/06 07:04:12;;;;;;;16.13;6.45;;;;;;;28.10;21.66;96257.06;5068640;28;20036;-83
2021/04/06 07:06:42;;;;;;;13.63;5.95;;;;;;;28.69;21.52;96261.56;5033359;28;20016;-83
2021/04/06 07:09:24;;;;;;;28.92;6.18;;;;;;;28.73;21.79;96263.59;5035378;28;20024;-82
2021/04/06 07:11:59;;;;;;;16.02;5.20;;;;;;;28.32;21.02;96250.75;5052914;28;20032;-83
2021/04/06 07:14:26;;;;;;;11.00;6.38;;;;;;;28.51;20.60;96240.50;5036759;28;20105;-83
2021/04/06 07:16:57;;;;;;;21.33;6.78;;;;;;;27.85;21.48;96241.53;5036470;28;20028;-83
2021/04/06 07:19:23;;;;;;;18.05;5.38;;;;;;;27.94;21.75;96239.28;5037098;28;20428;-84
2021/04/06 07:21:52;;;;;;;12.60;5.22;;;;;;;26.99;22.03;96237.41;5036615;28;20036;-83
2021/04/06 07:24:20;;;;;;;8.85;5.32;;;;;;;26.91;22.75;96233.94;5036481;28;20032;-84
2021/04/06 07:26:46;;;;;;;13.73;5.05;;;;;;;26.51;23.21;96240.03;5037116;28;20025;-84
2021/04/06 07:29:12;;;;;;;22.70;6.30;;;;;;;27.47;22.08;96240.22;5037700;28;20033;-81
2021/04/06 07:31:38;;;;;;;12.00;4.75;;;;;;;28.14;21.49;96226.09;5055281;28;20051;-83
2021/04/06 07:34:10;;;;;;;12.50;5.18;;;;;;;27.93;21.36;96212.91;5038099;28;20071;-83
2021/04/06 07:36:36;;;;;;;15.15;5.35;;;;;;;28.14;21.65;96225.25;5064961;28;20031;-84
2021/04/06 07:39:12;;;;;;;13.63;4.93;;;;;;;27.16;22.03;96227.50;5038285;28;20025;-82
2021/04/06 07:41:43;;;;;;;16.50;5.05;;;;;;;28.01;21.91;96229.03;5038275;28;20042;-83
2021/04/06 07:44:10;;;;;;;15.35;5.57;;;;;;;28.75;21.90;96222.91;5036627;28;20085;-83
2021/04/06 07:46:36;;;;;;;10.25;5.65;;;;;;;28.78;20.63;96213.31;5036186;28;20024;-83
2021/04/06 07:49:11;;;;;;;13.73;4.43;;;;;;;28.27;21.41;96208.53;5052414;28;20033;-83
2021/04/06 07:51:56;;;;;;;7.10;4.20;;;;;;;27.64;21.72;96217.34;5052608;28;20032;-83
2021/04/06 07:54:31;;;;;;;17.73;4.80;;;;;;;27.89;21.68;96217.19;5036012;28;20475;-83
2021/04/06 07:57:02;;;;;;;14.90;5.15;;;;;;;29.07;20.84;96214.25;5060646;28;20546;-84
2021/04/06 07:59:27;;;;;;;10.57;4.60;;;;;;;27.89;21.57;96208.94;5056134;28;20063;-83
2021/04/06 08:01:56;;;;;;;16.85;5.40;;;;;;;28.05;20.86;96210.19;5072731;28;20058;-83
2021/04/06 08:04:42;;;;;;;8.27;4.90;;;;;;;25.90;24.12;96207.88;5072612;28;20031;-83
2021/04/06 08:07:20;;;;;;;9.93;4.68;;;;;;;26.69;22.65;96207.13;5072138;28;20020;-83
2021/04/06 08:09:49;;;;;;;9.07;3.75;;;;;;;27.19;21.29;96199.59;5071754;28;20032;-82
2021/04/06 08:12:36;;;;;;;6.57;4.25;;;;;;;28.26;21.10;96202.19;5055607;28;20422;-82
2021/04/06 08:15:17;;;;;;;7.55;4.50;;;;;;;28.71;20.52;96199.69;5071752;28;20036;-83
2021/04/06 08:17:42;;;;;;;10.00;3.70;;;;;;;28.56;21.63;96185.56;5055762;28;20082;-84
2021/04/06 08:20:14;;;;;;;8.00;4.30;;;;;;;27.47;21.93;96196.28;5071816;28;20511;-82
2021/04/06 08:22:53;;;;;;;7.32;4.13;;;;;;;28.67;20.61;96192.97;5072112;28;20024;-82
2021/04/06 08:25:19;;;;;;;10.15;5.05;;;;;;;30.32;19.63;96184.63;5055643;28;20036;-83
2021/04/06 08:27:58;;;;;;;6.68;4.30;;;;;;;30.52;20.03;96190.47;5071640;28;20030;-83
2021/04/06 08:30:30;;;;;;;11.82;6.25;;;;;;;30.18;18.44;96167.56;5057710;28;20884;-83
2021/04/06 08:32:56;;;;;;;12.07;4.63;;;;;;;30.10;18.82;96170.75;5078255;28;20024;-83
2021/04/06 08:35:43;;;;;;;8.45;3.90;;;;;;;28.43;21.00;96164.63;5091089;28;20047;-83
2021/04/06 08:38:24;;;;;;;5.75;3.33;;;;;;;28.98;20.14;96177.97;5067607;28;20081;-83
2021/04/06 08:40:59;;;;;;;7.53;3.40;;;;;;;30.14;18.99;96169.19;5073376;28;20542;-83
2021/04/06 08:44:09;;;;;;;7.18;4.10;;;;;;;30.04;18.46;96133.97;5072448;28;20309;-86
2021/04/06 08:46:51;;;;;;;10.13;4.68;;;;;;;28.16;20.20;96157.94;5068501;28;20034;-85
2021/04/06 08:50:17;;;;;;;9.40;4.57;;;;;;;26.68;22.47;96156.06;5072531;28;20034;-84
2021/04/06 08:52:54;;;;;;;16.17;10.13;;;;;;;26.24;23.62;96114.16;5061192;28;20090;-84
2021/04/06 08:55:51;;;;;;;72.97;52.53;;;;;;;27.54;23.19;96098.91;5056422;28;20020;-85
2021/04/06 08:58:34;;;;;;;11.35;3.92;;;;;;;28.25;21.21;96095.16;5067612;28;20054;-85
2021/04/06 09:01:06;;;;;;;6.18;3.30;;;;;;;29.93;19.55;96132.13;5065591;28;20419;-85
2021/04/06 09:03:43;;;;;;;12.63;4.65;;;;;;;29.58;20.87;96091.00;5052385;28;20115;-85
2021/04/06 09:06:18;;;;;;;8.02;3.75;;;;;;;30.12;19.77;96096.03;5057508;28;20031;-85
2021/04/06 09:08:47;;;;;;;10.30;4.13;;;;;;;30.13;20.27;96153.69;5056005;28;20419;-78
2021/04/06 09:11:15;;;;;;;6.80;4.78;;;;;;;29.80;18.80;96131.63;5075352;28;20438;-79
2021/04/06 09:13:40;;;;;;;6.85;3.63;;;;;;;28.85;20.04;96134.19;5094174;28;20039;-78
2021/04/06 09:16:06;;;;;;;5.97;3.42;;;;;;;30.36;19.00;96125.94;5086419;28;20483;-78
2021/04/06 09:18:38;;;;;;;10.88;3.83;;;;;;;30.69;19.23;96115.91;5071152;28;20027;-78
2021/04/06 09:21:08;;;;;;;7.60;3.60;;;;;;;30.52;18.65;96111.25;5092848;28;20105;-79
2021/04/06 09:23:35;;;;;;;13.55;3.88;;;;;;;29.64;20.25;96078.13;5074645;28;20028;-79
2021/04/06 09:26:05;;;;;;;37.75;20.30;;;;;;;27.78;22.97;96113.56;5063505;28;20028;-79
2021/04/06 09:28:31;;;;;;;12.07;5.38;;;;;;;27.16;24.17;96113.03;5072474;28;20050;-78
2021/04/06 09:30:57;;;;;;;6.03;3.67;;;;;;;28.64;20.80;96121.06;5084844;28;20019;-77
2021/04/06 09:33:23;;;;;;;9.18;4.95;;;;;;;28.33;22.42;96123.13;5074080;28;20016;-77
2021/04/06 09:35:52;;;;;;;5.80;3.33;;;;;;;28.02;20.29;96107.78;5107379;28;20039;-77
2021/04/06 09:38:22;;;;;;;6.72;2.92;;;;;;;28.87;19.52;96086.06;5067303;28;20027;-80
2021/04/06 09:40:49;;;;;;;10.35;3.78;;;;;;;29.00;19.92;96098.72;5086692;28;20135;-78
2021/04/06 09:43:15;;;;;;;5.97;4.25;;;;;;;30.39;19.31;96099.78;5069155;28;20031;-77
2021/04/06 09:45:41;;;;;;;8.30;4.22;;;;;;;30.84;17.64;96089.31;5053721;28;20104;-77
2021/04/06 09:48:07;;;;;;;5.88;3.53;;;;;;;30.57;17.73;96078.22;5061075;28;20493;-77
2021/04/06 09:50:33;;;;;;;13.88;4.18;;;;;;;31.24;17.07;96077.91;5059433;28;20459;-77
2021/04/06 09:52:59;;;;;;;10.35;4.10;;;;;;;31.54;18.12;96083.78;5050817;28;20465;-78
2021/04/06 09:55:27;;;;;;;9.40;4.15;;;;;;;32.00;16.86;96081.38;5062857;28;20086;-77
2021/04/06 09:57:54;;;;;;;7.78;3.30;;;;;;;31.38;16.18;96070.88;5054462;28;20048;-76
2021/04/06 10:00:27;;;;;;;7.03;3.08;;;;;;;30.29;17.33;96063.72;5042340;28;20478;-76
2021/04/06 10:03:11;;;;;;;13.68;2.85;;;;;;;30.39;16.47;96058.38;5059151;28;20074;-77
2021/04/06 10:05:38;;;;;;;7.78;3.38;;;;;;;31.33;16.93;96054.25;5076989;28;20025;-78
2021/04/06 10:08:04;;;;;;;15.35;3.13;;;;;;;30.60;16.66;96046.50;5078322;28;20554;-77
2021/04/06 10:10:33;;;;;;;20.27;13.77;;;;;;;30.12;18.19;96046.38;5067576;28;20035;-77
2021/04/06 10:13:01;;;;;;;20.10;13.50;;;;;;;31.47;16.16;96038.88;5032823;28;20484;-75
2021/04/06 10:15:30;;;;;;;5.88;3.30;;;;;;;31.41;17.05;96045.47;5065284;28;20032;-74
2021/04/06 10:17:56;;;;;;;6.75;3.17;;;;;;;30.13;17.14;96037.81;5074806;28;20046;-76
2021/04/06 10:20:42;;;;;;;7.38;3.45;;;;;;;30.11;17.70;96028.97;5054937;28;20499;-76
2021/04/06 10:23:08;;;;;;;7.05;3.17;;;;;;;30.68;17.45;96017.59;5056234;28;20123;-76
2021/04/06 10:25:43;;;;;;;4.45;2.95;;;;;;;31.03;16.64;96016.09;5064009;28;20407;-78
2021/04/06 10:28:23;;;;;;;8.07;3.50;;;;;;;30.50;17.32;96014.06;5059029;28;20029;-78
2021/04/06 10:30:52;;;;;;;11.55;3.20;;;;;;;31.50;17.36;96010.72;5058896;28;20028;-77
2021/04/06 10:33:20;;;;;;;14.57;4.60;;;;;;;31.10;18.09;96004.84;5076116;28;20028;-77
2021/04/06 10:35:48;;;;;;;7.15;3.28;;;;;;;29.94;18.07;96004.19;5039751;28;20112;-76
2021/04/06 10:38:25;;;;;;;6.50;3.67;;;;;;;30.96;18.89;96004.41;5056667;28;20124;-76
2021/04/06 10:41:01;;;;;;;8.48;3.97;;;;;;;30.77;18.21;96004.97;5069825;28;20029;-76
2021/04/06 10:43:28;;;;;;;5.93;3.25;;;;;;;30.61;17.52;95991.00;5056416;28;20028;-76
2021/04/06 10:46:04;;;;;;;12.13;4.00;;;;;;;29.91;18.30;95990.91;5072796;28;20021;-76
2021/04/06 10:48:33;;;;;;;12.48;4.00;;;;;;;28.60;19.70;95968.50;5072715;28;20063;-76
2021/04/06 10:51:06;;;;;;;22.77;4.03;;;;;;;27.06;20.62;95961.75;5039916;28;20052;-76
2021/04/06 10:53:37;;;;;;;9.60;3.80;;;;;;;28.23;21.21;95973.53;5039909;28;20036;-76
2021/04/06 10:56:03;;;;;;;10.82;6.85;;;;;;;30.27;18.17;95970.13;5040182;28;20571;-76
2021/04/06 10:58:31;;;;;;;18.15;5.13;;;;;;;31.71;18.48;95964.72;5078798;28;20052;-77
2021/04/06 11:01:18;;;;;;;14.20;4.28;;;;;;;32.07;17.13;95943.66;5067905;28;20108;-76
2021/04/06 11:03:54;;;;;;;30.70;5.57;;;;;;;32.74;16.55;95950.03;5073522;28;20028;-76
2021/04/06 11:06:36;;;;;;;11.15;3.65;;;;;;;32.33;16.19;95939.09;5040792;28;20170;-76
2021/04/06 11:09:33;;;;;;;5.55;3.55;;;;;;;32.33;16.07;95928.00;5056354;28;20036;-76
2021/04/06 11:11:59;;;;;;;8.15;4.30;;;;;;;33.11;16.02;95926.84;5001269;28;20048;-76
2021/04/06 11:14:26;;;;;;;9.80;4.40;;;;;;;32.33;16.74;95915.00;5056032;28;20039;-76
2021/04/06 11:16:53;;;;;;;20.33;4.20;;;;;;;33.22;16.02;95903.56;5039046;28;20036;-76
2021/04/06 11:19:27;;;;;;;5.93;3.90;;;;;;;33.79;15.39;95909.63;5059314;28;20047;-76
2021/04/06 11:21:59;;;;;;;23.58;11.35;;;;;;;32.31;16.20;95889.50;5039009;28;20094;-76
2021/04/06 11:24:28;;;;;;;6.95;3.13;;;;;;;32.21;15.80;95883.94;5043956;28;20028;-76
2021/04/06 11:26:54;;;;;;;9.30;4.72;;;;;;;32.76;17.66;95883.28;5048051;28;20103;-76
2021/04/06 11:29:25;;;;;;;8.90;3.88;;;;;;;31.43;17.36;95877.41;5055822;28;20035;-76
2021/04/06 11:31:55;;;;;;;8.48;4.45;;;;;;;31.68;17.18;95880.38;5039009;28;20404;-76
2021/04/06 11:34:21;;;;;;;17.25;5.38;;;;;;;32.65;16.41;95874.13;5042513;28;20024;-76
2021/04/06 11:36:48;;;;;;;13.20;4.00;;;;;;;32.27;16.53;95871.78;5043261;28;20602;-77
2021/04/06 11:39:16;;;;;;;10.32;3.55;;;;;;;32.25;17.21;95867.63;5039690;28;20021;-76
2021/04/06 11:41:44;;;;;;;8.82;3.33;;;;;;;32.70;15.97;95874.13;5056204;28;20039;-76
2021/04/06 11:44:11;;;;;;;9.38;3.70;;;;;;;32.09;17.17;95858.44;5041061;28;20016;-77
2021/04/06 11:46:37;;;;;;;10.73;4.40;;;;;;;32.52;16.40;95857.16;5058762;28;20033;-76
2021/04/06 11:49:04;;;;;;;13.07;4.60;;;;;;;31.11;17.68;95858.13;5063676;28;20024;-77